KGNV 271753Z 31004KT 6SM -RA BR BKN110 25/24 A3003 RMK AO2 LTG DSNT NW-E TSE10 SLP166 P0003 60015 T02500239 10317 20244 58005